Time;durP1;ratioP1;P1;durP2;ratioP2;P2;SDS_P1;SDS_P2;PMS_P1;PMS_P2;Temp;Humidity;BMP_temperature;BMP_pressure;BME280_temperature;BME280_humidity;BME280_pressure;Samples;Min_cycle;Max_cycle;Signal;HPM_P1;HPM_P2
2023/10/22 00:03:08;;;;;;;5.72;1.23;;;12.70;99.90;;;;;;20107242;29;20869;-41
2023/10/22 00:13:08;;;;;;;2.77;1.33;;;12.80;99.90;;;;;;20107706;29;20053;-41
2023/10/22 00:23:09;;;;;;;4.50;1.70;;;12.80;99.90;;;;;;20120299;29;20600;-41
2023/10/22 00:33:09;;;;;;;5.85;2.03;;;12.90;99.90;;;;;;20104599;29;20060;-41
2023/10/22 00:43:10;;;;;;;6.75;2.70;;;12.90;99.90;;;;;;20102415;29;20041;-41
2023/10/22 00:53:14;;;;;;;6.15;1.88;;;12.90;99.90;;;;;;20093552;29;20392;-41
2023/10/22 01:03:16;;;;;;;6.70;2.20;;;13.00;99.90;;;;;;20090442;29;20045;-41
2023/10/22 01:13:16;;;;;;;5.05;1.90;;;13.10;99.90;;;;;;20097130;29;20490;-42
2023/10/22 01:23:17;;;;;;;3.45;1.40;;;13.10;99.90;;;;;;20094934;29;20204;-42
2023/10/22 01:33:17;;;;;;;5.03;1.70;;;13.10;99.90;;;;;;20091554;29;20156;-42
2023/10/22 01:43:18;;;;;;;4.97;1.73;;;13.10;99.90;;;;;;20100773;29;20056;-41
2023/10/22 01:53:19;;;;;;;3.55;1.23;;;13.20;99.90;;;;;;20093876;29;20049;-42
2023/10/22 02:03:19;;;;;;;1.80;1.20;;;13.10;99.90;;;;;;20091562;29;20436;-42
2023/10/22 02:13:20;;;;;;;2.05;1.02;;;13.10;99.90;;;;;;20091922;29;20049;-42
2023/10/22 02:23:21;;;;;;;3.95;1.00;;;13.10;99.90;;;;;;20037740;29;20062;-42
2023/10/22 02:43:25;;;;;;;4.25;1.20;;;13.30;99.90;;;;;;20313142;23;20543;-82
2023/10/22 02:53:26;;;;;;;3.25;0.90;;;13.40;99.90;;;;;;20279798;29;20192;-83
2023/10/22 03:03:26;;;;;;;5.03;1.00;;;13.40;99.90;;;;;;20272384;29;20357;-83
2023/10/22 03:13:27;;;;;;;6.05;1.40;;;13.30;99.90;;;;;;20280797;29;20112;-82
2023/10/22 03:23:28;;;;;;;5.87;2.03;;;13.20;99.90;;;;;;20293143;29;20052;-82
2023/10/22 03:33:29;;;;;;;7.10;4.25;;;13.20;99.90;;;;;;20280789;29;20567;-83
2023/10/22 03:43:30;;;;;;;10.40;4.50;;;12.90;99.90;;;;;;20360196;29;20051;-82
2023/10/22 03:53:31;;;;;;;10.52;4.38;;;12.70;99.90;;;;;;20353135;29;20082;-83
2023/10/22 04:03:32;;;;;;;10.98;6.03;;;12.40;99.90;;;;;;20373861;28;20062;-82
2023/10/22 04:13:32;;;;;;;8.30;3.90;;;12.40;99.90;;;;;;20353228;29;20050;-82
2023/10/22 04:23:33;;;;;;;8.82;2.70;;;12.30;99.90;;;;;;20353888;29;20155;-81
2023/10/22 04:33:35;;;;;;;6.50;2.03;;;12.30;99.90;;;;;;20350340;29;20047;-82
2023/10/22 04:43:36;;;;;;;7.32;1.70;;;12.20;99.90;;;;;;20369441;28;20117;-82
2023/10/22 04:53:36;;;;;;;6.43;2.03;;;12.10;99.90;;;;;;20355620;29;20193;-82
2023/10/22 05:03:37;;;;;;;5.27;2.20;;;12.10;99.90;;;;;;20355345;29;20102;-82
2023/10/22 05:13:38;;;;;;;5.82;2.75;;;12.20;99.90;;;;;;20353527;29;20051;-82
2023/10/22 05:23:38;;;;;;;8.95;3.55;;;12.10;99.90;;;;;;20342761;29;20044;-82
2023/10/22 05:33:39;;;;;;;5.47;3.47;;;12.20;99.90;;;;;;20350422;28;20062;-82
2023/10/22 05:43:39;;;;;;;7.72;3.15;;;12.20;99.90;;;;;;20350077;29;20158;-81
2023/10/22 05:53:40;;;;;;;9.13;2.97;;;12.10;99.90;;;;;;20352747;29;20067;-82
2023/10/22 06:03:41;;;;;;;5.28;2.50;;;12.00;99.90;;;;;;20380753;29;20047;-83
2023/10/22 06:13:42;;;;;;;8.38;3.50;;;12.00;99.90;;;;;;20378399;29;20059;-83
2023/10/22 06:23:43;;;;;;;6.63;3.40;;;12.10;99.90;;;;;;20390570;29;20043;-82
2023/10/22 06:33:43;;;;;;;6.07;3.30;;;12.00;99.90;;;;;;20355474;29;20742;-82
2023/10/22 06:43:44;;;;;;;9.88;3.92;;;12.10;99.90;;;;;;20371948;29;20530;-83
2023/10/22 06:53:46;;;;;;;8.52;4.35;;;12.10;99.90;;;;;;20378367;29;20189;-83
2023/10/22 07:03:47;;;;;;;11.38;5.28;;;12.00;99.90;;;;;;20371303;29;20421;-83
2023/10/22 07:13:47;;;;;;;9.52;5.90;;;12.10;99.90;;;;;;20369671;29;20139;-84
2023/10/22 07:23:48;;;;;;;9.88;4.45;;;12.10;99.90;;;;;;20383409;29;20132;-83
2023/10/22 07:33:50;;;;;;;9.85;4.30;;;12.10;99.90;;;;;;20358259;29;20047;-83
2023/10/22 07:43:50;;;;;;;9.57;4.50;;;12.10;99.90;;;;;;20359326;29;20058;-81
2023/10/22 07:53:51;;;;;;;8.87;4.50;;;12.00;99.90;;;;;;20359053;29;20059;-83
2023/10/22 08:03:52;;;;;;;7.40;3.80;;;12.10;99.90;;;;;;20353326;28;20474;-83
2023/10/22 08:13:52;;;;;;;11.20;3.30;;;12.50;99.90;;;;;;20354857;28;20039;-87
2023/10/22 08:23:53;;;;;;;7.60;2.80;;;12.80;90.70;;;;;;20339281;29;20460;-85
2023/10/22 08:33:53;;;;;;;6.40;3.22;;;12.80;62.30;;;;;;20346338;28;21116;-85
2023/10/22 08:43:55;;;;;;;5.30;2.40;;;12.70;54.40;;;;;;20351661;28;20940;-85
2023/10/22 08:53:55;;;;;;;7.20;2.70;;;12.90;71.00;;;;;;20354573;29;20177;-85
2023/10/22 09:03:59;;;;;;;6.83;2.40;;;13.20;48.50;;;;;;20354999;29;20060;-85
2023/10/22 09:13:59;;;;;;;8.88;3.05;;;13.40;24.80;;;;;;20349839;28;20075;-86
2023/10/22 09:24:04;;;;;;;6.80;3.20;;;13.20;22.00;;;;;;20333777;29;20179;-84
2023/10/22 09:34:24;;;;;;;8.40;3.47;;;12.90;41.20;;;;;;20332037;28;20059;-84
2023/10/22 09:44:26;;;;;;;4.60;2.60;;;13.10;40.10;;;;;;20303048;28;20055;-84
2023/10/22 09:54:41;;;;;;;6.13;2.95;;;13.10;34.30;;;;;;20305285;28;20054;-83
2023/10/22 10:04:47;;;;;;;6.50;2.65;;;13.20;59.50;;;;;;20378625;29;20471;-84
2023/10/22 10:14:51;;;;;;;3.65;2.50;;;13.40;51.20;;;;;;20357947;28;20040;-84
2023/10/22 10:25:28;;;;;;;3.42;2.20;;;13.70;44.10;;;;;;20345150;28;20089;-83
2023/10/22 10:35:30;;;;;;;4.88;2.08;;;14.10;11.80;;;;;;20308569;28;20522;-84
2023/10/22 10:45:31;;;;;;;4.45;1.80;;;14.80;1.00;;;;;;20370955;28;20059;-85
2023/10/22 10:55:33;;;;;;;6.15;2.15;;;14.90;1.00;;;;;;20358831;28;20044;-85
2023/10/22 11:05:38;;;;;;;4.68;1.85;;;15.10;1.00;;;;;;20350468;28;20083;-85
2023/10/22 11:15:41;;;;;;;4.13;1.40;;;15.30;1.00;;;;;;20355250;29;20812;-84
2023/10/22 11:25:42;;;;;;;3.58;0.93;;;16.00;1.00;;;;;;20342461;28;20419;-84
2023/10/22 11:35:43;;;;;;;4.00;1.00;;;16.40;1.00;;;;;;20324245;28;20045;-83
2023/10/22 11:45:54;;;;;;;1.53;0.63;;;15.90;1.00;;;;;;20370374;29;20122;-86
2023/10/22 11:55:55;;;;;;;3.95;0.68;;;15.20;1.00;;;;;;20334098;29;20478;-83
2023/10/22 12:05:56;;;;;;;2.90;0.80;;;16.10;1.00;;;;;;20324473;28;20043;-87
2023/10/22 12:16:00;;;;;;;3.80;0.80;;;17.20;1.00;;;;;;20349060;28;20044;-85
2023/10/22 12:26:02;;;;;;;2.90;0.80;;;17.60;1.00;;;;;;20349524;29;20376;-85
2023/10/22 12:36:04;;;;;;;1.67;0.52;;;16.80;1.00;;;;;;20326732;28;20825;-85
2023/10/22 12:46:05;;;;;;;2.80;0.70;;;17.10;1.00;;;;;;20348900;29;20056;-84
2023/10/22 12:56:07;;;;;;;2.95;0.55;;;16.00;1.00;;;;;;20351537;29;20054;-85
2023/10/22 13:06:08;;;;;;;3.25;1.45;;;15.50;1.00;;;;;;20324929;29;20048;-86
2023/10/22 13:16:09;;;;;;;1.50;0.47;;;15.80;1.00;;;;;;20341307;29;20215;-86
2023/10/22 13:26:09;;;;;;;2.75;0.75;;;16.10;1.00;;;;;;20353443;29;20059;-85
2023/10/22 13:36:10;;;;;;;3.92;0.70;;;17.10;1.00;;;;;;20298680;28;20423;-85
2023/10/22 13:46:11;;;;;;;3.43;0.70;;;17.20;1.00;;;;;;20347031;29;20058;-83
2023/10/22 13:56:12;;;;;;;2.80;0.60;;;16.70;1.00;;;;;;20457058;28;20110;-85
2023/10/22 14:06:13;;;;;;;2.58;0.47;;;16.80;1.00;;;;;;20474102;28;20080;-85
2023/10/22 14:16:17;;;;;;;3.20;0.68;;;16.20;1.00;;;;;;20398411;28;20122;-85
2023/10/22 14:26:18;;;;;;;2.70;0.82;;;15.50;1.00;;;;;;20401107;28;20063;-85
2023/10/22 14:36:21;;;;;;;5.38;0.60;;;15.30;1.00;;;;;;20349833;28;20060;-86
2023/10/22 14:46:22;;;;;;;3.00;0.70;;;15.50;1.00;;;;;;20396318;29;20039;-85
2023/10/22 14:56:23;;;;;;;3.22;0.90;;;15.70;1.00;;;;;;20297197;28;20079;-85
2023/10/22 15:06:24;;;;;;;4.80;0.90;;;15.70;1.00;;;;;;20352012;28;20036;-86
2023/10/22 15:16:27;;;;;;;3.70;0.80;;;15.90;1.00;;;;;;20360551;28;20060;-85
2023/10/22 15:26:28;;;;;;;4.07;0.70;;;15.60;1.00;;;;;;20359505;29;20044;-85
2023/10/22 15:36:31;;;;;;;4.97;0.80;;;15.50;1.00;;;;;;20389257;28;20054;-85
2023/10/22 15:46:31;;;;;;;3.85;0.70;;;15.10;1.00;;;;;;20336534;29;20555;-85
2023/10/22 15:56:32;;;;;;;4.78;0.90;;;15.00;1.00;;;;;;20365910;29;20048;-85
2023/10/22 16:06:33;;;;;;;4.40;0.90;;;14.70;1.00;;;;;;20355764;29;20047;-85
2023/10/22 16:16:34;;;;;;;3.08;0.70;;;14.50;1.00;;;;;;20343282;28;20054;-85
2023/10/22 16:26:34;;;;;;;2.83;0.80;;;13.90;1.00;;;;;;20353821;29;20251;-84
2023/10/22 16:36:35;;;;;;;3.08;0.90;;;13.60;1.00;;;;;;20318717;29;20480;-84
2023/10/22 16:46:37;;;;;;;3.08;1.40;;;13.20;1.00;;;;;;20354781;28;20130;-83
2023/10/22 16:56:37;;;;;;;1.73;0.90;;;12.90;1.00;;;;;;20315513;28;20054;-85
2023/10/22 17:06:39;;;;;;;5.03;1.30;;;12.60;1.00;;;;;;20339784;29;20063;-84
2023/10/22 17:16:40;;;;;;;2.65;1.08;;;12.30;1.00;;;;;;20357655;28;20063;-85
2023/10/22 17:26:40;;;;;;;3.13;1.00;;;12.00;1.00;;;;;;20345382;29;20082;-86
2023/10/22 17:36:41;;;;;;;2.77;1.00;;;11.80;1.00;;;;;;20332695;28;21013;-86
2023/10/22 17:46:42;;;;;;;2.38;1.20;;;11.70;2.30;;;;;;20333867;28;20072;-86
2023/10/22 17:56:43;;;;;;;4.00;2.05;;;11.60;16.80;;;;;;20355383;28;20083;-85
2023/10/22 18:06:44;;;;;;;7.07;3.35;;;11.60;29.20;;;;;;20346067;29;20047;-85
2023/10/22 18:16:45;;;;;;;5.85;3.50;;;11.50;30.00;;;;;;20352803;28;20479;-85
2023/10/22 18:26:46;;;;;;;6.63;3.60;;;11.50;29.20;;;;;;20351391;28;20048;-90
2023/10/22 18:36:47;;;;;;;5.60;3.40;;;11.20;24.00;;;;;;20353307;28;21500;-85
2023/10/22 18:46:47;;;;;;;5.05;3.00;;;11.10;22.30;;;;;;20368295;28;20055;-86
2023/10/22 18:56:48;;;;;;;5.38;2.45;;;11.00;24.20;;;;;;20366381;28;20500;-85
2023/10/22 19:06:48;;;;;;;6.23;2.87;;;10.80;24.20;;;;;;20363715;29;20643;-85
2023/10/22 19:16:49;;;;;;;6.40;2.53;;;10.60;30.20;;;;;;20357217;29;20463;-86
2023/10/22 19:26:50;;;;;;;5.78;2.35;;;10.50;35.10;;;;;;20344919;28;20531;-85
2023/10/22 19:36:50;;;;;;;5.63;2.75;;;10.40;43.30;;;;;;20353497;29;20079;-85
2023/10/22 19:46:51;;;;;;;6.05;3.30;;;10.20;42.60;;;;;;20351278;29;20468;-85
2023/10/22 19:56:56;;;;;;;6.37;3.57;;;10.10;35.60;;;;;;20352781;28;20095;-86
2023/10/22 20:06:56;;;;;;;8.77;4.32;;;10.10;44.70;;;;;;20318010;28;20539;-84
2023/10/22 20:16:57;;;;;;;7.38;4.38;;;10.10;58.30;;;;;;20357045;29;20040;-86
2023/10/22 20:26:59;;;;;;;8.02;4.80;;;10.10;66.30;;;;;;20363081;28;20062;-85
2023/10/22 20:37:03;;;;;;;8.80;5.18;;;9.90;59.30;;;;;;20361381;29;20052;-85
2023/10/22 20:47:04;;;;;;;8.25;5.45;;;9.90;61.70;;;;;;20331544;29;20097;-84
2023/10/22 20:57:04;;;;;;;9.70;6.13;;;9.90;65.50;;;;;;20318492;28;20048;-85
2023/10/22 21:07:05;;;;;;;10.23;6.13;;;10.10;87.00;;;;;;20338808;29;20048;-85
2023/10/22 21:17:06;;;;;;;11.43;6.28;;;10.00;94.80;;;;;;20359360;29;20056;-85
2023/10/22 21:27:07;;;;;;;8.55;5.80;;;10.00;98.80;;;;;;20351349;28;20046;-85
2023/10/22 21:37:08;;;;;;;7.88;5.93;;;9.90;80.10;;;;;;20339186;28;20170;-85
2023/10/22 21:47:08;;;;;;;7.80;5.60;;;9.70;85.10;;;;;;20345325;29;20047;-85
2023/10/22 21:57:11;;;;;;;10.50;5.93;;;9.70;85.80;;;;;;20338691;29;20507;-85
2023/10/22 22:07:11;;;;;;;10.10;6.13;;;9.60;91.50;;;;;;20324050;29;20464;-85
2023/10/22 22:17:12;;;;;;;11.60;6.15;;;9.60;95.10;;;;;;20330087;29;20054;-85
2023/10/22 22:27:12;;;;;;;8.70;5.72;;;9.60;97.20;;;;;;20308186;29;20043;-85
2023/10/22 22:37:13;;;;;;;8.45;5.18;;;9.70;95.30;;;;;;20349111;29;20120;-85
2023/10/22 22:47:14;;;;;;;9.45;5.50;;;9.70;97.00;;;;;;20358947;28;20445;-86
2023/10/22 22:57:14;;;;;;;8.60;5.03;;;9.60;99.90;;;;;;20369282;28;20067;-85
2023/10/22 23:07:15;;;;;;;9.80;5.90;;;9.60;99.90;;;;;;20354070;28;20472;-85
2023/10/22 23:17:16;;;;;;;8.38;5.72;;;9.80;99.90;;;;;;20347758;29;20554;-85
2023/10/22 23:27:16;;;;;;;9.68;6.13;;;10.00;99.90;;;;;;20348579;29;21759;-85
2023/10/22 23:37:17;;;;;;;8.70;5.83;;;10.00;99.90;;;;;;20350101;28;21622;-85
2023/10/22 23:47:18;;;;;;;8.18;5.93;;;10.00;99.90;;;;;;20349931;28;20471;-85
2023/10/22 23:57:18;;;;;;;9.83;6.07;;;9.90;99.90;;;;;;20347279;29;20102;-84
